createdAt,value
2019-01-20T00:00:11.547Z,25.60
2019-01-20T00:02:42.881Z,25.25
2019-01-20T00:05:14.780Z,23.12
2019-01-20T00:07:45.147Z,30.68
2019-01-20T00:10:16.334Z,25.15
2019-01-20T00:12:46.648Z,26.50
2019-01-20T00:15:17.582Z,27.48
2019-01-20T00:17:47.914Z,25.75
2019-01-20T00:20:18.336Z,33.33
2019-01-20T00:22:49.297Z,28.40
2019-01-20T00:25:19.737Z,23.92
2019-01-20T00:27:50.098Z,30.50
2019-01-20T00:30:20.454Z,25.92
2019-01-20T00:32:50.777Z,21.42
2019-01-20T00:35:22.217Z,29.92
2019-01-20T00:37:52.519Z,26.77
2019-01-20T00:40:23.367Z,26.35
2019-01-20T00:42:53.750Z,28.02
2019-01-20T00:45:24.064Z,27.25
2019-01-20T00:47:54.380Z,29.15
2019-01-20T00:50:24.765Z,30.48
2019-01-20T00:52:55.152Z,24.70
2019-01-20T00:55:25.506Z,25.37
2019-01-20T00:57:55.922Z,27.55
2019-01-20T01:00:31.606Z,29.80
2019-01-20T01:03:01.934Z,25.75
2019-01-20T01:05:32.385Z,31.97
2019-01-20T01:08:02.727Z,26.55
2019-01-20T01:10:34.752Z,30.15
2019-01-20T01:13:05.652Z,30.23
2019-01-20T01:15:35.971Z,25.37
2019-01-20T01:18:06.614Z,29.57
2019-01-20T01:20:36.928Z,30.10
2019-01-20T01:23:07.276Z,31.85
2019-01-20T01:25:37.656Z,29.98
2019-01-20T01:28:08.000Z,30.85
2019-01-20T01:30:38.316Z,37.33
2019-01-20T01:33:08.774Z,31.97
2019-01-20T01:35:39.074Z,33.60
2019-01-20T01:38:09.418Z,30.12
2019-01-20T01:40:40.830Z,33.98
2019-01-20T01:43:11.196Z,33.23
2019-01-20T01:45:41.589Z,37.63
2019-01-20T01:48:11.925Z,40.83
2019-01-20T01:50:42.333Z,32.60
2019-01-20T01:53:12.721Z,29.48
2019-01-20T01:55:43.076Z,29.52
2019-01-20T01:58:13.400Z,28.60
2019-01-20T02:00:43.735Z,31.52
2019-01-20T02:03:14.076Z,31.52
2019-01-20T02:05:44.461Z,35.00
2019-01-20T02:08:14.793Z,34.05
2019-01-20T02:10:46.353Z,30.52
2019-01-20T02:13:16.708Z,30.88
2019-01-20T02:15:47.032Z,29.15
2019-01-20T02:18:17.364Z,30.55
2019-01-20T02:20:47.681Z,27.35
2019-01-20T02:23:18.020Z,28.30
2019-01-20T02:25:48.392Z,31.85
2019-01-20T02:28:18.717Z,33.30
2019-01-20T02:30:49.036Z,30.88
2019-01-20T02:33:19.785Z,28.98
2019-01-20T02:35:50.090Z,31.35
2019-01-20T02:38:20.444Z,29.72
2019-01-20T02:40:52.244Z,30.90
2019-01-20T02:43:22.674Z,33.38
2019-01-20T02:45:53.003Z,35.25
2019-01-20T02:48:23.322Z,30.62
2019-01-20T02:50:53.670Z,33.38
2019-01-20T02:53:24.064Z,32.58
2019-01-20T02:55:54.412Z,38.02
2019-01-20T02:58:24.776Z,35.73
2019-01-20T03:00:55.094Z,28.95
2019-01-20T03:03:25.435Z,28.92
2019-01-20T03:05:55.775Z,28.17
2019-01-20T03:08:26.140Z,31.60
2019-01-20T03:10:57.082Z,30.37
2019-01-20T03:13:27.436Z,33.35
2019-01-20T03:15:57.770Z,26.65
2019-01-20T03:18:28.092Z,28.20
2019-01-20T03:20:58.408Z,26.48
2019-01-20T03:23:28.729Z,28.73
2019-01-20T03:25:59.030Z,25.70
2019-01-20T03:28:29.371Z,28.83
2019-01-20T03:30:59.739Z,26.12
2019-01-20T03:33:30.072Z,29.05
2019-01-20T03:36:00.401Z,24.25
2019-01-20T03:38:30.774Z,30.55
2019-01-20T03:41:01.110Z,28.17
2019-01-20T03:43:31.449Z,26.50
2019-01-20T03:46:01.772Z,29.75
2019-01-20T03:48:32.110Z,27.48
2019-01-20T03:51:02.472Z,26.30
2019-01-20T03:53:32.832Z,30.60
2019-01-20T03:56:03.169Z,35.25
2019-01-20T03:58:33.552Z,32.50
2019-01-20T04:01:03.970Z,31.42
2019-01-20T04:03:34.726Z,30.77
2019-01-20T04:06:05.260Z,32.55
2019-01-20T04:08:35.578Z,26.42
2019-01-20T04:11:07.268Z,31.82
2019-01-20T04:13:37.585Z,27.85
2019-01-20T04:16:07.913Z,30.85
2019-01-20T04:18:38.229Z,30.55
2019-01-20T04:21:08.731Z,28.57
2019-01-20T04:23:39.078Z,37.10
2019-01-20T04:26:09.769Z,27.75
2019-01-20T04:28:40.132Z,26.68
2019-01-20T04:31:10.435Z,33.25
2019-01-20T04:33:40.750Z,31.12
2019-01-20T04:36:11.060Z,32.42
2019-01-20T04:38:41.426Z,33.70
2019-01-20T04:41:13.274Z,28.77
2019-01-20T04:43:43.621Z,32.08
2019-01-20T04:46:13.978Z,26.73
2019-01-20T04:48:44.314Z,33.38
2019-01-20T04:51:14.618Z,33.83
2019-01-20T04:53:45.243Z,29.10
2019-01-20T04:56:15.640Z,30.15
2019-01-20T04:58:45.978Z,34.35
2019-01-20T05:01:16.329Z,34.67
2019-01-20T05:03:46.692Z,39.08
2019-01-20T05:06:16.964Z,34.48
2019-01-20T05:08:47.370Z,33.28
2019-01-20T05:11:18.842Z,38.38
2019-01-20T05:13:49.225Z,27.50
2019-01-20T05:16:19.521Z,34.55
2019-01-20T05:18:49.938Z,31.80
2019-01-20T05:21:20.282Z,31.42
2019-01-20T05:23:50.594Z,29.92
2019-01-20T05:26:20.931Z,36.77
2019-01-20T05:28:51.271Z,35.40
2019-01-20T05:31:21.621Z,35.63
2019-01-20T05:33:51.962Z,35.52
2019-01-20T05:36:22.280Z,37.63
2019-01-20T05:38:52.641Z,36.98
2019-01-20T05:41:24.370Z,35.30
2019-01-20T05:43:54.715Z,27.93
2019-01-20T05:46:25.016Z,32.38
2019-01-20T05:48:55.353Z,35.73
2019-01-20T05:51:25.650Z,38.88
2019-01-20T05:53:56.585Z,34.55
2019-01-20T05:56:26.916Z,38.40
2019-01-20T05:58:57.308Z,38.90
2019-01-20T06:01:27.738Z,33.45
2019-01-20T06:03:58.010Z,39.00
2019-01-20T06:06:28.422Z,36.28
2019-01-20T06:08:58.956Z,36.20
2019-01-20T06:11:29.470Z,51.25
2019-01-20T06:14:00.296Z,46.28
2019-01-20T06:16:30.650Z,40.00
2019-01-20T06:19:00.960Z,43.98
2019-01-20T06:21:31.289Z,39.58
2019-01-20T06:24:01.691Z,34.45
2019-01-20T06:26:32.026Z,38.65
2019-01-20T06:29:02.378Z,37.40
2019-01-20T06:31:32.733Z,43.75
2019-01-20T06:34:03.048Z,53.10
2019-01-20T06:36:33.349Z,43.33
2019-01-20T06:39:05.468Z,41.85
2019-01-20T06:41:36.032Z,40.28
2019-01-20T06:44:06.722Z,54.93
2019-01-20T06:46:37.129Z,42.20
2019-01-20T06:49:07.516Z,44.80
2019-01-20T06:51:37.889Z,43.13
2019-01-20T06:54:08.352Z,53.63
2019-01-20T06:56:38.744Z,48.38
2019-01-20T06:59:09.144Z,52.83
2019-01-20T07:01:39.568Z,54.50
2019-01-20T07:04:09.914Z,43.20
2019-01-20T07:06:40.296Z,54.63
2019-01-20T07:09:10.659Z,55.80
2019-01-20T07:11:41.090Z,44.75
2019-01-20T07:14:11.510Z,51.50
2019-01-20T07:16:41.860Z,57.08
2019-01-20T07:19:12.240Z,55.58
2019-01-20T07:21:42.665Z,60.78
2019-01-20T07:24:13.062Z,62.58
2019-01-20T07:26:43.551Z,68.22
2019-01-20T07:29:13.934Z,60.03
2019-01-20T07:31:44.331Z,58.45
2019-01-20T07:34:14.760Z,58.98
2019-01-20T07:36:45.115Z,56.45
2019-01-20T07:39:15.483Z,60.23
2019-01-20T07:41:46.625Z,56.53
2019-01-20T07:44:17.009Z,66.00
2019-01-20T07:46:47.362Z,64.53
2019-01-20T07:49:17.697Z,58.75
2019-01-20T07:51:48.048Z,66.87
2019-01-20T07:54:18.541Z,68.75
2019-01-20T07:56:48.888Z,62.80
2019-01-20T07:59:19.312Z,58.05
2019-01-20T08:01:49.684Z,65.60
2019-01-20T08:04:20.060Z,57.08
2019-01-20T08:06:51.329Z,49.65
2019-01-20T08:09:21.644Z,51.30
2019-01-20T08:11:51.998Z,41.02
2019-01-20T08:14:22.307Z,33.33
2019-01-20T08:16:53.599Z,33.67
2019-01-20T08:19:23.963Z,41.83
2019-01-20T08:21:54.260Z,39.30
2019-01-20T08:24:24.595Z,38.65
2019-01-20T08:26:54.892Z,33.00
2019-01-20T08:29:25.270Z,30.50
2019-01-20T08:31:55.640Z,36.60
2019-01-20T08:34:25.934Z,34.80
2019-01-20T08:36:56.302Z,37.42
2019-01-20T08:39:26.616Z,40.52
2019-01-20T08:41:56.969Z,32.78
2019-01-20T08:44:31.257Z,38.55
2019-01-20T08:47:19.812Z,46.98
2019-01-20T08:49:50.196Z,45.80
2019-01-20T08:52:20.665Z,41.10
2019-01-20T08:54:51.050Z,46.45
2019-01-20T08:57:21.407Z,48.10
2019-01-20T08:59:51.917Z,41.33
2019-01-20T09:02:22.291Z,47.25
2019-01-20T09:04:52.621Z,47.83
2019-01-20T09:07:22.971Z,47.13
2019-01-20T09:09:53.308Z,43.45
2019-01-20T09:12:23.641Z,52.45
2019-01-20T09:14:53.995Z,44.18
2019-01-20T09:17:24.499Z,45.55
2019-01-20T09:19:54.844Z,44.10
2019-01-20T09:22:25.322Z,43.00
2019-01-20T09:24:55.652Z,41.23
2019-01-20T09:27:26.038Z,49.08
2019-01-20T09:29:56.388Z,47.95
2019-01-20T09:32:26.836Z,49.50
2019-01-20T09:34:57.214Z,45.75
2019-01-20T09:37:27.580Z,49.83
2019-01-20T09:39:57.936Z,50.67
2019-01-20T09:42:28.231Z,49.20
2019-01-20T09:44:58.664Z,45.93
2019-01-20T09:47:28.999Z,47.80
2019-01-20T09:49:59.510Z,44.07
2019-01-20T09:52:29.856Z,47.15
2019-01-20T09:55:00.237Z,52.43
2019-01-20T09:57:30.576Z,47.78
2019-01-20T10:00:00.880Z,46.95
2019-01-20T10:02:32.581Z,51.13
2019-01-20T10:05:02.961Z,47.13
2019-01-20T10:07:33.347Z,53.40
2019-01-20T10:10:03.781Z,49.95
2019-01-20T10:12:35.094Z,48.68
2019-01-20T10:15:07.200Z,48.20
2019-01-20T10:17:37.595Z,44.65
2019-01-20T10:20:14.840Z,48.85
2019-01-20T10:22:45.177Z,47.53
2019-01-20T10:25:15.543Z,49.35
2019-01-20T10:27:45.892Z,54.15
2019-01-20T10:30:36.179Z,45.12
2019-01-20T10:33:06.550Z,41.65
2019-01-20T10:35:46.784Z,34.00
2019-01-20T10:38:17.340Z,40.85
2019-01-20T10:40:47.685Z,39.08
2019-01-20T10:43:18.493Z,35.98
2019-01-20T10:45:48.830Z,44.80
2019-01-20T10:48:19.212Z,33.98
2019-01-20T10:50:49.768Z,38.45
2019-01-20T10:53:20.164Z,37.50
2019-01-20T10:55:50.589Z,41.48
2019-01-20T10:58:20.892Z,37.30
2019-01-20T11:00:51.250Z,44.27
2019-01-20T11:03:21.580Z,46.15
2019-01-20T11:05:51.993Z,38.92
2019-01-20T11:08:22.425Z,30.82
2019-01-20T11:10:52.809Z,39.10
2019-01-20T11:13:25.697Z,33.20
2019-01-20T11:15:56.064Z,29.90
2019-01-20T11:18:26.418Z,24.40
2019-01-20T11:20:56.783Z,31.23
2019-01-20T11:23:27.514Z,29.65
2019-01-20T11:25:57.871Z,33.48
2019-01-20T11:28:28.263Z,30.27
2019-01-20T11:30:58.840Z,28.85
2019-01-20T11:33:29.218Z,25.20
2019-01-20T11:35:59.579Z,31.77
2019-01-20T11:38:29.951Z,35.03
2019-01-20T11:41:00.312Z,33.70
2019-01-20T11:43:31.886Z,44.25
2019-01-20T11:46:02.225Z,41.40
2019-01-20T11:48:32.616Z,43.30
2019-01-20T11:51:02.948Z,42.33
2019-01-20T11:53:33.332Z,37.75
2019-01-20T11:56:03.666Z,30.55
2019-01-20T11:58:33.960Z,31.62
2019-01-20T12:01:04.290Z,25.37
2019-01-20T12:03:34.729Z,34.50
2019-01-20T12:06:05.181Z,30.72
2019-01-20T12:08:35.512Z,31.97
2019-01-20T12:11:05.853Z,24.00
2019-01-20T12:13:36.190Z,26.45
2019-01-20T12:16:06.798Z,28.27
2019-01-20T12:18:37.153Z,23.50
2019-01-20T12:21:07.759Z,27.90
2019-01-20T12:23:38.280Z,23.47
2019-01-20T12:26:09.057Z,31.40
2019-01-20T12:28:39.422Z,25.15
2019-01-20T12:31:09.825Z,23.38
2019-01-20T12:33:40.749Z,24.60
2019-01-20T12:36:11.128Z,24.02
2019-01-20T12:38:41.456Z,22.80
2019-01-20T12:41:11.816Z,18.48
2019-01-20T12:43:43.321Z,23.50
2019-01-20T12:46:13.680Z,23.62
2019-01-20T12:48:44.038Z,24.87
2019-01-20T12:51:14.557Z,28.83
2019-01-20T12:53:45.189Z,23.27
2019-01-20T12:56:16.189Z,18.37
2019-01-20T12:58:47.774Z,23.98
2019-01-20T13:01:18.136Z,17.27
2019-01-20T13:03:48.479Z,19.50
2019-01-20T13:06:18.828Z,22.90
2019-01-20T13:08:49.228Z,26.62
2019-01-20T13:11:19.550Z,24.27
2019-01-20T13:13:49.975Z,22.85
2019-01-20T13:16:20.267Z,25.50
2019-01-20T13:18:50.596Z,19.95
2019-01-20T13:21:21.028Z,22.27
2019-01-20T13:23:51.408Z,25.12
2019-01-20T13:26:21.742Z,21.70
2019-01-20T13:28:52.100Z,18.85
2019-01-20T13:31:22.816Z,22.90
2019-01-20T13:33:53.180Z,16.93
2019-01-20T13:36:23.504Z,21.75
2019-01-20T13:38:53.856Z,21.40
2019-01-20T13:41:31.982Z,21.95
2019-01-20T13:44:02.454Z,21.73
2019-01-20T13:46:32.849Z,22.70
2019-01-20T13:49:03.552Z,22.37
2019-01-20T13:51:34.005Z,19.60
2019-01-20T13:54:04.668Z,28.40
2019-01-20T13:56:36.123Z,24.40
2019-01-20T13:59:06.585Z,20.43
2019-01-20T14:01:36.911Z,21.80
2019-01-20T14:04:07.276Z,20.90
2019-01-20T14:06:37.681Z,25.10
2019-01-20T14:09:10.117Z,21.62
2019-01-20T14:11:40.475Z,24.37
2019-01-20T14:14:11.711Z,29.98
2019-01-20T14:16:42.042Z,23.92
2019-01-20T14:19:12.412Z,20.62
2019-01-20T14:21:43.177Z,25.00
2019-01-20T14:24:13.579Z,18.70
2019-01-20T14:26:43.883Z,22.30
2019-01-20T14:29:14.285Z,21.60
2019-01-20T14:31:44.670Z,20.37
2019-01-20T14:34:15.046Z,22.75
2019-01-20T14:36:45.397Z,19.17
2019-01-20T14:39:16.860Z,23.35
2019-01-20T14:41:47.204Z,16.97
2019-01-20T14:44:18.160Z,22.32
2019-01-20T14:46:48.507Z,24.80
2019-01-20T14:49:18.804Z,23.47
2019-01-20T14:51:49.180Z,21.23
2019-01-20T14:54:19.528Z,24.65
2019-01-20T14:56:49.883Z,20.88
2019-01-20T14:59:21.268Z,22.75
2019-01-20T15:01:51.568Z,18.05
2019-01-20T15:04:21.908Z,22.02
2019-01-20T15:06:52.239Z,18.90
2019-01-20T15:09:22.672Z,20.08
2019-01-20T15:11:52.964Z,21.62
2019-01-20T15:14:24.268Z,20.88
2019-01-20T15:16:55.992Z,21.00
2019-01-20T15:19:26.457Z,21.87
2019-01-20T15:21:56.851Z,17.27
2019-01-20T15:24:31.224Z,18.35
2019-01-20T15:26:59.304Z,19.12
2019-01-20T15:29:29.625Z,20.00
2019-01-20T15:31:59.968Z,21.90
2019-01-20T15:34:30.444Z,21.27
2019-01-20T15:37:00.798Z,19.15
2019-01-20T15:39:31.133Z,20.08
2019-01-20T15:42:01.568Z,18.82
2019-01-20T15:44:31.968Z,22.37
2019-01-20T15:47:03.528Z,19.52
2019-01-20T15:49:33.841Z,18.95
2019-01-20T15:52:04.176Z,19.32
2019-01-20T15:54:34.537Z,20.75
2019-01-20T15:57:04.866Z,19.75
2019-01-20T15:59:35.245Z,17.17
2019-01-20T16:02:13.083Z,16.23
2019-01-20T16:04:43.442Z,19.55
2019-01-20T16:07:13.814Z,16.20
2019-01-20T16:09:44.235Z,16.27
2019-01-20T16:12:14.601Z,15.55
2019-01-20T16:14:44.952Z,10.38
2019-01-20T16:17:15.929Z,15.78
2019-01-20T16:19:46.280Z,15.58
2019-01-20T16:22:16.627Z,15.48
2019-01-20T16:24:47.027Z,15.20
2019-01-20T16:27:17.808Z,16.42
2019-01-20T16:29:48.133Z,15.63
2019-01-20T16:32:18.493Z,15.80
2019-01-20T16:34:48.900Z,17.90
2019-01-20T16:37:19.315Z,16.52
2019-01-20T16:39:49.616Z,19.05
2019-01-20T16:42:19.972Z,13.98
2019-01-20T16:44:50.805Z,14.38
2019-01-20T16:47:22.655Z,15.85
2019-01-20T16:49:53.034Z,14.70
2019-01-20T16:52:23.370Z,13.75
2019-01-20T16:54:53.713Z,14.83
2019-01-20T16:57:24.103Z,17.82
2019-01-20T16:59:54.419Z,15.60
2019-01-20T17:02:24.814Z,14.70
2019-01-20T17:04:55.193Z,18.05
2019-01-20T17:07:25.548Z,19.82
2019-01-20T17:09:55.942Z,17.32
2019-01-20T17:12:26.279Z,11.95
2019-01-20T17:14:56.638Z,18.37
2019-01-20T17:17:27.666Z,16.80
2019-01-20T17:19:58.004Z,19.85
2019-01-20T17:22:28.369Z,22.90
2019-01-20T17:24:59.166Z,19.05
2019-01-20T17:27:29.585Z,16.50
2019-01-20T17:29:59.950Z,20.68
2019-01-20T17:32:30.299Z,22.93
2019-01-20T17:35:01.677Z,22.20
2019-01-20T17:37:33.110Z,13.13
2019-01-20T17:40:03.603Z,14.07
2019-01-20T17:42:33.925Z,19.23
2019-01-20T17:45:04.948Z,14.43
2019-01-20T17:47:36.896Z,14.60
2019-01-20T17:50:10.817Z,16.50
2019-01-20T17:52:41.160Z,17.62
2019-01-20T17:55:11.877Z,16.48
2019-01-20T17:57:42.193Z,17.00
2019-01-20T18:00:16.360Z,13.40
2019-01-20T18:02:46.809Z,20.25
2019-01-20T18:05:19.568Z,17.40
2019-01-20T18:07:49.985Z,19.55
2019-01-20T18:10:20.845Z,18.25
2019-01-20T18:12:51.198Z,17.92
2019-01-20T18:15:21.993Z,19.07
2019-01-20T18:17:53.645Z,20.15
2019-01-20T18:20:25.578Z,18.60
2019-01-20T18:22:55.933Z,14.73
2019-01-20T18:25:26.355Z,23.25
2019-01-20T18:27:56.796Z,17.50
2019-01-20T18:30:28.195Z,18.20
2019-01-20T18:32:58.521Z,21.05
2019-01-20T18:35:29.136Z,20.32
2019-01-20T18:37:59.566Z,22.32
2019-01-20T18:40:29.933Z,16.42
2019-01-20T18:43:00.287Z,17.07
2019-01-20T18:45:32.124Z,19.12
2019-01-20T18:48:02.949Z,13.48
2019-01-20T18:50:36.321Z,22.10
2019-01-20T18:53:06.757Z,20.43
2019-01-20T18:55:37.926Z,20.80
2019-01-20T18:58:08.334Z,21.12
2019-01-20T19:00:50.248Z,16.20
2019-01-20T19:03:20.617Z,20.05
2019-01-20T19:05:51.089Z,20.90
2019-01-20T19:08:21.421Z,18.30
2019-01-20T19:10:51.850Z,16.35
2019-01-20T19:13:22.173Z,23.45
2019-01-20T19:15:52.540Z,21.52
2019-01-20T19:18:24.360Z,16.57
2019-01-20T19:20:54.752Z,22.22
2019-01-20T19:23:25.133Z,19.52
2019-01-20T19:25:55.525Z,22.90
2019-01-20T19:28:25.926Z,20.65
2019-01-20T19:30:56.286Z,22.75
2019-01-20T19:33:26.622Z,23.80
2019-01-20T19:35:57.001Z,23.75
2019-01-20T19:38:27.387Z,19.10
2019-01-20T19:40:57.740Z,23.45
2019-01-20T19:43:28.152Z,22.15
2019-01-20T19:45:58.513Z,21.27
2019-01-20T19:48:28.898Z,25.32
2019-01-20T19:50:59.226Z,26.45
2019-01-20T19:53:30.213Z,23.12
2019-01-20T19:56:00.576Z,29.30
2019-01-20T19:58:30.961Z,20.27
2019-01-20T20:01:01.348Z,30.37
2019-01-20T20:03:31.685Z,29.87
2019-01-20T20:06:02.101Z,22.87
2019-01-20T20:08:32.433Z,32.33
2019-01-20T20:11:02.833Z,31.27
2019-01-20T20:13:33.235Z,30.00
2019-01-20T20:16:03.601Z,29.72
2019-01-20T20:18:34.613Z,29.02
2019-01-20T20:21:05.013Z,28.95
2019-01-20T20:23:35.358Z,25.32
2019-01-20T20:26:05.928Z,25.48
2019-01-20T20:28:36.320Z,30.40
2019-01-20T20:31:06.711Z,21.12
2019-01-20T20:33:37.090Z,24.55
2019-01-20T20:36:07.464Z,25.80
2019-01-20T20:38:37.911Z,33.02
2019-01-20T20:41:08.302Z,34.48
2019-01-20T20:43:38.680Z,24.60
2019-01-20T20:46:09.064Z,28.95
2019-01-20T20:48:40.856Z,25.05
2019-01-20T20:51:11.169Z,33.67
2019-01-20T20:53:41.507Z,27.40
2019-01-20T20:56:11.913Z,21.73
2019-01-20T20:58:42.337Z,29.42
2019-01-20T21:01:12.675Z,25.97
2019-01-20T21:03:43.222Z,32.40
2019-01-20T21:06:15.150Z,28.10
2019-01-20T21:08:48.500Z,32.30
2019-01-20T21:11:18.264Z,28.20
2019-01-20T21:13:48.701Z,25.57
2019-01-20T21:16:20.105Z,25.70
2019-01-20T21:18:51.312Z,27.95
2019-01-20T21:21:21.628Z,27.17
2019-01-20T21:23:52.991Z,26.17
2019-01-20T21:26:23.325Z,27.17
2019-01-20T21:28:53.737Z,26.00
2019-01-20T21:31:24.255Z,27.35
2019-01-20T21:33:54.617Z,28.32
2019-01-20T21:36:25.027Z,31.05
2019-01-20T21:38:55.449Z,33.38
2019-01-20T21:41:25.869Z,34.20
2019-01-20T21:43:56.172Z,29.87
2019-01-20T21:46:26.561Z,28.52
2019-01-20T21:48:58.677Z,29.48
2019-01-20T21:51:29.008Z,33.13
2019-01-20T21:53:59.413Z,31.68
2019-01-20T21:56:29.781Z,30.85
2019-01-20T21:59:00.328Z,26.20
2019-01-20T22:01:30.685Z,35.65
2019-01-20T22:04:01.015Z,33.45
2019-01-20T22:06:31.378Z,26.93
2019-01-20T22:09:01.803Z,31.42
2019-01-20T22:11:33.269Z,29.37
2019-01-20T22:14:03.748Z,35.25
2019-01-20T22:16:34.081Z,31.05
2019-01-20T22:19:05.080Z,27.77
2019-01-20T22:21:35.499Z,29.30
2019-01-20T22:24:07.033Z,28.17
2019-01-20T22:26:39.621Z,30.00
2019-01-20T22:29:10.073Z,29.72
2019-01-20T22:31:40.513Z,33.18
2019-01-20T22:34:10.908Z,27.67
2019-01-20T22:36:41.331Z,35.73
2019-01-20T22:39:11.707Z,28.15
2019-01-20T22:41:42.021Z,25.85
2019-01-20T22:44:12.405Z,33.18
2019-01-20T22:46:42.760Z,27.85
2019-01-20T22:49:13.905Z,34.75
2019-01-20T22:51:44.227Z,34.45
2019-01-20T22:54:14.595Z,30.43
2019-01-20T22:56:44.941Z,27.60
2019-01-20T22:59:16.335Z,32.83
2019-01-20T23:01:46.753Z,32.50
2019-01-20T23:04:17.093Z,30.70
2019-01-20T23:06:49.054Z,27.42
2019-01-20T23:09:20.706Z,29.87
2019-01-20T23:11:51.028Z,28.12
2019-01-20T23:14:21.494Z,32.67
2019-01-20T23:16:51.785Z,31.20
2019-01-20T23:19:22.550Z,30.25
2019-01-20T23:21:54.340Z,30.92
2019-01-20T23:24:25.784Z,26.57
2019-01-20T23:26:56.116Z,34.25
2019-01-20T23:29:26.499Z,32.83
2019-01-20T23:31:56.802Z,34.10
2019-01-20T23:34:27.223Z,29.32
2019-01-20T23:36:57.563Z,35.65
2019-01-20T23:39:27.958Z,34.27
2019-01-20T23:41:58.277Z,33.73
2019-01-20T23:44:28.586Z,35.63
2019-01-20T23:46:58.945Z,35.55
2019-01-20T23:49:30.561Z,32.55
2019-01-20T23:52:01.070Z,34.10
2019-01-20T23:54:31.378Z,31.12
2019-01-20T23:57:01.736Z,32.35
2019-01-20T23:59:32.157Z,35.13
